Time;durP1;ratioP1;P1;durP2;ratioP2;P2;SDS_P1;SDS_P2;PMS_P1;PMS_P2;Temp;Humidity;BMP_temperature;BMP_pressure;BME280_temperature;BME280_humidity;BME280_pressure;Samples;Min_cycle;Max_cycle;Signal;HPM_P1;HPM_P2
2022/08/04 00:00:10;;;;;;;4.15;1.50;;;32.40;29.80;;;;;;6289948;28;20048;-72
2022/08/04 00:03:23;;;;;;;6.72;1.67;;;32.40;29.90;;;;;;6263466;28;20045;-72
2022/08/04 00:06:38;;;;;;;5.40;1.70;;;32.30;29.90;;;;;;6267315;28;20029;-72
2022/08/04 00:09:59;;;;;;;5.03;1.67;;;32.40;29.90;;;;;;6264145;28;20467;-72
2022/08/04 00:13:02;;;;;;;3.72;2.20;;;32.30;30.00;;;;;;6265655;28;20419;-72
2022/08/04 00:16:06;;;;;;;4.63;1.98;;;32.30;30.00;;;;;;6266232;28;20032;-72
2022/08/04 00:19:22;;;;;;;7.35;1.65;;;32.30;30.10;;;;;;6266041;28;20172;-72
2022/08/04 00:22:27;;;;;;;3.67;1.90;;;32.20;30.20;;;;;;6265276;28;20381;-71
2022/08/04 00:25:28;;;;;;;5.20;1.77;;;32.10;30.20;;;;;;6266291;28;20033;-71
2022/08/04 00:28:29;;;;;;;4.97;1.75;;;32.10;30.40;;;;;;6231950;28;20059;-72
2022/08/04 00:31:31;;;;;;;3.25;1.80;;;32.00;30.50;;;;;;6265496;28;20033;-72
2022/08/04 00:34:33;;;;;;;5.95;1.73;;;32.00;30.50;;;;;;6266753;28;20176;-72
2022/08/04 00:37:37;;;;;;;4.65;1.67;;;32.00;30.70;;;;;;6270579;28;20485;-72
2022/08/04 00:41:22;;;;;;;8.95;1.90;;;32.00;30.80;;;;;;6292775;28;20458;-72
2022/08/04 00:44:34;;;;;;;4.85;1.70;;;31.90;30.90;;;;;;6172211;28;20089;-71
2022/08/04 00:47:53;;;;;;;7.97;1.80;;;31.90;31.00;;;;;;6174418;28;20118;-71
2022/08/04 00:51:18;;;;;;;7.70;1.58;;;31.90;31.10;;;;;;6173955;28;20403;-71
2022/08/04 00:54:46;;;;;;;2.60;1.50;;;31.80;31.30;;;;;;6172043;28;20069;-71
2022/08/04 00:58:28;;;;;;;6.88;1.95;;;31.70;31.40;;;;;;6156607;28;20373;-71
2022/08/04 01:01:38;;;;;;;3.42;1.95;;;31.80;31.50;;;;;;6123611;29;20036;-71
2022/08/04 01:04:48;;;;;;;3.92;1.88;;;31.70;31.60;;;;;;6121961;29;20039;-73
2022/08/04 01:08:22;;;;;;;5.38;1.77;;;31.60;31.70;;;;;;6096909;29;20048;-73
2022/08/04 01:11:39;;;;;;;8.77;1.52;;;31.50;31.90;;;;;;6108318;29;20397;-71
2022/08/04 01:15:04;;;;;;;3.05;2.00;;;31.40;32.00;;;;;;6108322;29;20134;-71
2022/08/04 01:18:15;;;;;;;6.43;1.70;;;31.30;32.10;;;;;;6170524;28;20038;-73
2022/08/04 01:21:35;;;;;;;6.93;2.03;;;31.20;32.30;;;;;;6220115;28;20483;-72
2022/08/04 01:24:59;;;;;;;7.20;2.05;;;31.10;32.40;;;;;;6218730;28;20037;-71
2022/08/04 01:28:29;;;;;;;2.35;1.42;;;31.00;32.60;;;;;;6219970;28;20052;-71
2022/08/04 01:31:47;;;;;;;2.63;1.85;;;31.00;32.70;;;;;;6219350;28;20378;-71
2022/08/04 01:35:12;;;;;;;1.90;1.70;;;30.90;32.80;;;;;;6218723;28;20041;-71
2022/08/04 01:38:49;;;;;;;2.25;1.55;;;30.90;32.90;;;;;;6242450;28;20039;-72
2022/08/04 01:41:52;;;;;;;4.30;1.80;;;30.90;33.00;;;;;;6193599;28;20038;-72
2022/08/04 01:44:56;;;;;;;7.15;1.88;;;31.00;33.10;;;;;;6187134;28;20045;-72
2022/08/04 01:47:57;;;;;;;3.20;1.95;;;31.00;33.00;;;;;;6201948;28;20116;-71
2022/08/04 01:51:03;;;;;;;2.90;1.42;;;31.00;32.90;;;;;;6218527;28;20045;-72
2022/08/04 01:54:05;;;;;;;2.42;1.50;;;31.00;32.80;;;;;;6219752;28;20069;-72
2022/08/04 01:57:07;;;;;;;8.60;1.70;;;31.00;32.80;;;;;;6202954;28;20045;-71
2022/08/04 02:00:11;;;;;;;3.58;1.70;;;31.00;32.90;;;;;;6203439;28;20030;-73
2022/08/04 02:03:13;;;;;;;7.45;1.58;;;30.90;33.00;;;;;;6219424;28;20044;-72
2022/08/04 02:06:32;;;;;;;4.45;1.70;;;30.90;33.30;;;;;;6219561;28;20414;-72
2022/08/04 02:09:45;;;;;;;4.40;1.90;;;30.80;33.30;;;;;;6201709;28;20108;-72
2022/08/04 02:13:10;;;;;;;4.70;1.65;;;30.90;33.40;;;;;;6219111;28;20038;-72
2022/08/04 02:16:41;;;;;;;4.17;2.00;;;30.80;33.40;;;;;;6217923;28;20117;-71
2022/08/04 02:20:08;;;;;;;4.57;1.92;;;30.70;33.40;;;;;;6292820;28;20036;-72
2022/08/04 02:23:14;;;;;;;4.57;2.13;;;30.70;33.60;;;;;;6295205;28;20477;-73
2022/08/04 02:26:20;;;;;;;3.22;1.92;;;30.70;33.70;;;;;;6295959;28;20040;-72
2022/08/04 02:29:50;;;;;;;2.38;1.95;;;30.70;33.80;;;;;;6294243;28;20431;-73
2022/08/04 02:32:54;;;;;;;4.63;1.90;;;30.60;33.80;;;;;;6285216;28;20389;-72
2022/08/04 02:36:00;;;;;;;3.60;1.85;;;30.60;33.80;;;;;;6295269;28;20040;-72
2022/08/04 02:39:04;;;;;;;4.15;2.25;;;30.60;34.00;;;;;;6294514;28;20045;-73
2022/08/04 02:42:05;;;;;;;4.75;1.92;;;30.50;34.20;;;;;;6294013;28;20052;-71
2022/08/04 02:45:07;;;;;;;5.18;2.00;;;30.40;34.30;;;;;;6292614;28;20095;-71
2022/08/04 02:48:09;;;;;;;3.95;1.80;;;30.40;34.60;;;;;;6295111;28;20366;-71
2022/08/04 02:51:12;;;;;;;6.55;2.08;;;30.40;34.70;;;;;;6294829;28;20044;-72
2022/08/04 02:54:16;;;;;;;3.50;1.90;;;30.30;34.70;;;;;;6295005;28;20029;-71
2022/08/04 02:57:20;;;;;;;2.63;1.67;;;30.30;34.80;;;;;;6293357;28;20056;-71
2022/08/04 03:00:21;;;;;;;2.47;2.17;;;30.30;34.80;;;;;;6294744;28;20036;-71
2022/08/04 03:04:09;;;;;;;5.38;2.10;;;30.30;34.90;;;;;;6291633;28;20044;-71
2022/08/04 03:07:19;;;;;;;7.65;1.85;;;30.20;35.10;;;;;;6168654;28;20045;-71
2022/08/04 03:10:47;;;;;;;10.48;2.58;;;30.30;35.00;;;;;;6153712;28;20038;-71
2022/08/04 03:13:57;;;;;;;5.63;1.75;;;30.30;35.10;;;;;;6167353;28;20035;-71
2022/08/04 03:17:19;;;;;;;3.88;1.90;;;30.30;35.00;;;;;;6161787;28;20039;-71
2022/08/04 03:20:28;;;;;;;4.10;1.90;;;30.20;35.10;;;;;;6144055;28;20138;-73
2022/08/04 03:23:44;;;;;;;3.67;1.60;;;30.20;35.30;;;;;;6144269;28;20569;-71
2022/08/04 03:27:03;;;;;;;2.28;1.65;;;30.10;35.30;;;;;;6127965;28;20541;-72
2022/08/04 03:30:23;;;;;;;6.38;2.20;;;30.10;35.40;;;;;;6143778;28;20035;-72
2022/08/04 03:33:36;;;;;;;3.72;1.77;;;30.00;35.50;;;;;;6155648;28;20067;-72
2022/08/04 03:37:10;;;;;;;2.78;1.92;;;30.00;35.80;;;;;;6167386;28;20058;-72
2022/08/04 03:40:30;;;;;;;2.97;1.92;;;29.90;36.00;;;;;;6167077;28;20360;-72
2022/08/04 03:43:52;;;;;;;3.88;2.03;;;29.80;36.00;;;;;;6252845;28;20123;-72
2022/08/04 03:47:02;;;;;;;4.30;2.40;;;29.80;36.30;;;;;;6292224;28;20036;-72
2022/08/04 03:50:26;;;;;;;4.97;2.13;;;29.70;36.40;;;;;;6293033;28;20033;-72
2022/08/04 03:54:02;;;;;;;10.77;1.88;;;29.70;36.70;;;;;;6275240;28;20111;-72
2022/08/04 03:57:30;;;;;;;3.15;2.15;;;29.70;36.80;;;;;;6200393;28;20045;-72
2022/08/04 04:00:57;;;;;;;7.07;1.88;;;29.60;37.10;;;;;;6216790;28;20151;-72
2022/08/04 04:03:57;;;;;;;5.47;2.65;;;29.60;37.50;;;;;;6214013;28;20057;-72
2022/08/04 04:07:19;;;;;;;5.13;2.47;;;29.50;37.50;;;;;;6216019;28;20052;-72
2022/08/04 04:10:42;;;;;;;5.25;2.40;;;29.50;37.60;;;;;;6185078;28;20030;-72
2022/08/04 04:14:19;;;;;;;3.30;2.38;;;29.50;37.80;;;;;;6188754;28;20363;-72
2022/08/04 04:17:41;;;;;;;7.47;2.60;;;29.40;37.70;;;;;;6196220;28;20146;-72
2022/08/04 04:21:09;;;;;;;2.63;1.92;;;29.40;37.80;;;;;;6215702;28;20411;-72
2022/08/04 04:24:19;;;;;;;2.22;2.03;;;29.40;38.00;;;;;;6180021;28;20046;-72
2022/08/04 04:27:35;;;;;;;3.17;2.03;;;29.40;38.10;;;;;;6196632;28;20038;-72
2022/08/04 04:30:58;;;;;;;2.17;1.88;;;29.40;38.10;;;;;;6229387;28;20481;-72
2022/08/04 04:34:33;;;;;;;3.13;2.05;;;29.30;38.10;;;;;;6289170;28;20041;-72
2022/08/04 04:38:04;;;;;;;3.30;2.28;;;29.30;38.10;;;;;;6295863;28;20099;-71
2022/08/04 04:41:57;;;;;;;2.45;2.20;;;29.30;38.30;;;;;;6296649;28;20036;-71
2022/08/04 04:45:16;;;;;;;7.13;2.33;;;29.30;38.40;;;;;;6177812;28;20528;-72
2022/08/04 04:48:37;;;;;;;8.23;3.00;;;29.30;38.30;;;;;;6196914;28;20042;-72
2022/08/04 04:51:53;;;;;;;2.95;1.95;;;29.30;38.40;;;;;;6178988;28;20061;-72
2022/08/04 04:55:06;;;;;;;2.13;1.98;;;29.30;38.50;;;;;;6196584;28;20052;-72
2022/08/04 04:58:12;;;;;;;2.80;2.30;;;29.30;38.60;;;;;;6196926;28;20472;-71
2022/08/04 05:01:34;;;;;;;2.65;2.03;;;29.30;38.50;;;;;;6196914;28;20046;-72
2022/08/04 05:04:44;;;;;;;2.15;1.92;;;29.30;38.40;;;;;;6179006;28;20077;-72
2022/08/04 05:08:14;;;;;;;5.00;2.08;;;29.30;38.50;;;;;;6186184;28;20038;-72
2022/08/04 05:11:50;;;;;;;8.70;2.42;;;29.30;38.60;;;;;;6192456;28;20045;-72
2022/08/04 05:14:53;;;;;;;3.40;2.10;;;29.40;39.50;;;;;;6098437;29;20478;-71
2022/08/04 05:17:57;;;;;;;5.65;2.50;;;29.40;38.80;;;;;;6091217;29;20047;-71
2022/08/04 05:21:15;;;;;;;3.25;2.60;;;29.30;38.70;;;;;;6145232;28;20034;-74
2022/08/04 05:24:18;;;;;;;6.20;2.30;;;29.30;38.90;;;;;;6195746;28;20464;-72
2022/08/04 05:27:27;;;;;;;5.93;2.50;;;29.30;39.70;;;;;;6195200;28;20034;-71
2022/08/04 05:30:32;;;;;;;6.15;2.20;;;29.20;39.40;;;;;;6179979;28;20105;-71
2022/08/04 05:33:46;;;;;;;8.65;2.47;;;29.20;39.60;;;;;;6195233;28;20038;-71
2022/08/04 05:36:50;;;;;;;11.15;2.60;;;29.20;39.60;;;;;;6195440;28;20050;-72
2022/08/04 05:39:58;;;;;;;13.02;2.63;;;29.20;39.50;;;;;;6195893;28;20104;-71
2022/08/04 05:43:00;;;;;;;22.98;3.03;;;29.10;39.50;;;;;;6178027;28;20073;-72
2022/08/04 05:46:01;;;;;;;15.07;2.67;;;29.20;39.60;;;;;;6194890;28;20050;-72
2022/08/04 05:49:04;;;;;;;12.80;2.30;;;29.10;39.50;;;;;;6261412;28;20028;-72
2022/08/04 05:52:06;;;;;;;12.35;2.40;;;29.20;39.70;;;;;;6295338;28;20501;-72
2022/08/04 05:55:11;;;;;;;8.95;2.15;;;29.20;39.90;;;;;;6295255;28;20056;-72
2022/08/04 05:58:15;;;;;;;8.18;2.13;;;29.20;39.90;;;;;;6296287;28;20032;-72
2022/08/04 06:01:17;;;;;;;3.83;2.00;;;29.20;40.00;;;;;;6296372;28;20506;-72
2022/08/04 06:04:20;;;;;;;8.00;2.30;;;29.10;40.20;;;;;;6289047;28;20138;-72
2022/08/04 06:07:21;;;;;;;5.93;2.40;;;29.10;40.30;;;;;;6296409;28;20136;-71
2022/08/04 06:10:24;;;;;;;4.25;1.95;;;29.10;40.50;;;;;;6295936;28;20432;-71
2022/08/04 06:13:29;;;;;;;7.13;2.63;;;29.00;40.60;;;;;;6288774;28;20095;-72
2022/08/04 06:16:37;;;;;;;4.00;2.50;;;28.90;40.60;;;;;;6294259;28;20131;-71
2022/08/04 06:19:40;;;;;;;11.82;3.10;;;28.90;40.80;;;;;;6296408;28;20032;-72
2022/08/04 06:22:43;;;;;;;5.90;2.03;;;28.90;40.90;;;;;;6300621;28;20037;-72
2022/08/04 06:25:48;;;;;;;6.47;3.10;;;28.80;40.90;;;;;;6297670;28;20109;-72
2022/08/04 06:28:50;;;;;;;13.32;2.65;;;28.80;41.00;;;;;;6294065;28;20033;-72
2022/08/04 06:32:01;;;;;;;6.30;2.28;;;28.80;41.10;;;;;;6271018;28;20052;-72
2022/08/04 06:35:05;;;;;;;7.75;2.53;;;28.80;41.10;;;;;;6282961;28;20477;-71
2022/08/04 06:38:07;;;;;;;6.55;2.17;;;28.80;41.10;;;;;;6278532;28;20051;-71
2022/08/04 06:41:08;;;;;;;7.28;2.70;;;28.90;41.10;;;;;;6277024;28;20040;-71
2022/08/04 06:44:11;;;;;;;8.80;2.05;;;29.00;40.90;;;;;;6279031;28;20036;-71
2022/08/04 06:47:12;;;;;;;5.07;2.55;;;29.10;40.70;;;;;;6284551;28;20067;-71
2022/08/04 06:50:15;;;;;;;15.20;2.63;;;29.10;40.60;;;;;;6286476;28;20040;-72
2022/08/04 06:53:17;;;;;;;12.02;2.17;;;29.20;40.50;;;;;;6284873;28;20066;-72
2022/08/04 06:56:19;;;;;;;13.05;3.13;;;29.30;40.40;;;;;;6293755;28;20083;-71
2022/08/04 06:59:21;;;;;;;6.95;2.50;;;29.50;40.10;;;;;;6280889;28;20037;-72
2022/08/04 07:02:30;;;;;;;7.75;2.58;;;29.80;39.70;;;;;;6276435;28;20480;-72
2022/08/04 07:05:31;;;;;;;6.30;2.58;;;29.90;39.30;;;;;;6296688;28;20032;-72
2022/08/04 07:08:34;;;;;;;10.00;2.15;;;30.10;38.90;;;;;;6296813;28;20024;-72
2022/08/04 07:11:35;;;;;;;4.32;2.40;;;30.10;38.50;;;;;;6295314;28;20021;-72
2022/08/04 07:14:39;;;;;;;6.43;2.08;;;30.20;38.30;;;;;;6296593;28;20089;-72
2022/08/04 07:17:40;;;;;;;4.53;2.35;;;30.30;38.10;;;;;;6296681;28;20135;-72
2022/08/04 07:20:43;;;;;;;3.97;2.50;;;30.40;37.70;;;;;;6295464;28;20048;-72
2022/08/04 07:23:44;;;;;;;7.50;2.58;;;30.50;37.50;;;;;;6296055;28;20037;-72
2022/08/04 07:26:49;;;;;;;2.40;2.10;;;30.60;37.40;;;;;;6292800;28;20029;-72
2022/08/04 07:29:51;;;;;;;6.65;2.40;;;30.70;37.30;;;;;;6295119;28;20123;-72
2022/08/04 07:32:53;;;;;;;3.40;2.20;;;30.90;37.20;;;;;;6295363;28;20082;-73
2022/08/04 07:35:56;;;;;;;6.95;2.03;;;31.00;36.80;;;;;;6295209;28;20028;-72
2022/08/04 07:38:57;;;;;;;3.00;2.15;;;31.10;36.60;;;;;;6296275;28;20405;-72
2022/08/04 07:42:00;;;;;;;4.90;2.20;;;31.20;36.40;;;;;;6312263;28;20067;-72
2022/08/04 07:45:01;;;;;;;9.15;2.70;;;31.30;36.10;;;;;;6294616;28;20036;-72
2022/08/04 07:48:06;;;;;;;8.57;2.47;;;31.30;36.10;;;;;;6296367;28;20048;-72
2022/08/04 07:51:07;;;;;;;3.45;2.22;;;31.30;36.00;;;;;;6296386;28;20052;-72
2022/08/04 07:54:09;;;;;;;6.47;2.40;;;31.40;35.90;;;;;;6296177;28;20047;-72
2022/08/04 07:57:10;;;;;;;4.38;2.10;;;31.50;35.60;;;;;;6277826;28;20040;-72
2022/08/04 08:00:13;;;;;;;2.88;2.08;;;31.60;35.10;;;;;;6295714;28;20048;-72
2022/08/04 08:03:15;;;;;;;6.30;2.15;;;31.70;35.00;;;;;;6284676;28;20033;-72
2022/08/04 08:06:16;;;;;;;4.55;2.08;;;31.80;34.90;;;;;;6271627;28;20480;-72
2022/08/04 08:09:22;;;;;;;9.85;2.20;;;31.90;34.70;;;;;;6270401;28;20045;-72
2022/08/04 08:12:24;;;;;;;3.63;2.03;;;32.00;34.50;;;;;;6271308;28;20357;-72
2022/08/04 08:15:25;;;;;;;4.38;2.15;;;32.10;34.90;;;;;;6280108;28;20043;-72
2022/08/04 08:18:26;;;;;;;8.50;1.92;;;32.20;34.20;;;;;;6295916;28;20036;-73
2022/08/04 08:21:27;;;;;;;3.05;1.95;;;32.50;34.00;;;;;;6294942;28;20105;-72
2022/08/04 08:24:29;;;;;;;2.92;2.03;;;32.60;33.60;;;;;;6294499;28;20036;-73
2022/08/04 08:27:30;;;;;;;7.95;2.30;;;32.80;33.20;;;;;;6295597;28;20033;-72
2022/08/04 08:30:32;;;;;;;12.50;2.53;;;33.00;33.10;;;;;;6290589;28;20149;-72
2022/08/04 08:33:34;;;;;;;3.03;2.00;;;33.10;32.70;;;;;;6281450;28;20044;-72
2022/08/04 08:36:50;;;;;;;4.10;2.65;;;33.20;32.30;;;;;;6269625;28;20033;-72
2022/08/04 08:40:19;;;;;;;4.30;2.17;;;33.40;32.10;;;;;;6285330;28;20033;-72
2022/08/04 08:43:34;;;;;;;9.25;2.55;;;33.50;31.80;;;;;;6270816;28;20049;-72
2022/08/04 08:46:53;;;;;;;3.28;2.17;;;33.60;31.60;;;;;;6287321;28;20097;-71
2022/08/04 08:50:19;;;;;;;4.35;2.00;;;33.80;31.50;;;;;;6295412;28;20044;-71
2022/08/04 08:53:44;;;;;;;17.45;2.40;;;34.00;31.30;;;;;;6292131;28;20040;-73
2022/08/04 08:57:00;;;;;;;5.25;2.10;;;34.10;30.90;;;;;;6295865;28;20033;-72
2022/08/04 09:00:22;;;;;;;7.63;2.80;;;34.30;30.70;;;;;;6297122;28;20461;-72
2022/08/04 09:03:42;;;;;;;11.20;6.10;;;34.40;30.60;;;;;;6274978;28;20028;-73
2022/08/04 09:07:17;;;;;;;9.48;3.30;;;34.50;30.40;;;;;;6294649;28;20052;-72
2022/08/04 09:10:39;;;;;;;11.43;2.78;;;34.70;30.20;;;;;;6269316;28;20388;-72
2022/08/04 09:13:59;;;;;;;7.68;2.53;;;34.80;30.00;;;;;;6296970;28;20043;-72
2022/08/04 09:17:05;;;;;;;4.65;2.78;;;34.80;29.80;;;;;;6298148;28;20044;-72
2022/08/04 09:20:17;;;;;;;5.20;2.20;;;34.90;29.80;;;;;;6296985;28;20119;-72
2022/08/04 09:23:30;;;;;;;5.47;2.20;;;34.90;29.70;;;;;;6297819;28;20142;-72
2022/08/04 09:26:55;;;;;;;3.35;2.17;;;35.00;29.60;;;;;;6290932;28;20036;-72
2022/08/04 09:30:08;;;;;;;7.13;2.28;;;35.10;29.70;;;;;;6292802;28;20094;-71
2022/08/04 09:33:27;;;;;;;7.45;3.15;;;35.20;29.60;;;;;;6278303;28;20414;-71
2022/08/04 09:36:40;;;;;;;3.95;2.60;;;35.30;29.50;;;;;;6296451;28;20060;-71
2022/08/04 09:40:03;;;;;;;2.38;2.17;;;35.30;29.30;;;;;;6291365;28;20033;-73
2022/08/04 09:43:07;;;;;;;5.93;2.72;;;35.30;29.30;;;;;;6294893;28;20119;-71
2022/08/04 09:46:14;;;;;;;6.95;2.88;;;35.20;29.30;;;;;;6283892;28;20474;-72
2022/08/04 09:49:38;;;;;;;6.25;2.45;;;35.20;29.40;;;;;;6293938;28;20417;-72
2022/08/04 09:53:19;;;;;;;8.45;2.30;;;35.20;29.40;;;;;;6293900;28;20177;-72
2022/08/04 09:56:40;;;;;;;3.72;2.58;;;35.30;29.40;;;;;;6292736;28;20540;-72
2022/08/04 09:59:52;;;;;;;5.70;2.70;;;35.50;29.30;;;;;;6294456;28;20139;-72
2022/08/04 10:02:55;;;;;;;14.80;2.85;;;35.70;29.10;;;;;;6294645;28;20158;-73
2022/08/04 10:05:56;;;;;;;11.40;2.78;;;35.70;29.20;;;;;;6295498;28;20044;-71
2022/08/04 10:09:30;;;;;;;8.52;2.83;;;35.80;29.20;;;;;;6295025;28;20024;-71
2022/08/04 10:12:51;;;;;;;4.43;2.67;;;35.80;29.30;;;;;;6293205;28;20086;-72
2022/08/04 10:16:23;;;;;;;8.27;2.28;;;35.90;29.20;;;;;;6309105;28;20078;-71
2022/08/04 10:19:27;;;;;;;3.75;2.60;;;35.90;29.20;;;;;;6294076;28;20372;-71
2022/08/04 10:22:37;;;;;;;6.53;2.88;;;36.00;29.20;;;;;;6292972;28;20349;-72
2022/08/04 10:25:47;;;;;;;3.92;2.35;;;36.10;29.20;;;;;;6292218;28;20471;-71
2022/08/04 10:29:12;;;;;;;11.15;2.67;;;36.20;29.10;;;;;;6294070;28;20051;-73
2022/08/04 10:32:24;;;;;;;8.05;2.90;;;36.20;29.00;;;;;;6289431;28;20450;-72
2022/08/04 10:35:28;;;;;;;6.32;2.60;;;36.20;29.00;;;;;;6269722;28;20044;-71
2022/08/04 10:38:36;;;;;;;7.57;2.20;;;36.20;28.90;;;;;;6270241;28;20041;-72
2022/08/04 10:42:02;;;;;;;5.20;2.35;;;36.10;28.90;;;;;;6270280;28;20033;-72
2022/08/04 10:45:18;;;;;;;11.40;2.22;;;36.20;28.80;;;;;;6273800;28;20378;-72
2022/08/04 10:48:18;;;;;;;2.45;2.08;;;36.40;28.60;;;;;;6293933;28;20124;-71
2022/08/04 10:51:43;;;;;;;12.55;1.85;;;36.50;28.40;;;;;;6294412;28;20028;-71
2022/08/04 10:54:56;;;;;;;5.75;3.13;;;36.40;28.30;;;;;;6291701;28;20045;-73
2022/08/04 10:58:03;;;;;;;2.95;2.03;;;36.40;28.20;;;;;;6293567;28;20358;-71
2022/08/04 11:01:13;;;;;;;6.10;1.90;;;36.30;28.30;;;;;;6275414;28;20052;-72
2022/08/04 11:04:46;;;;;;;10.07;2.42;;;36.40;28.10;;;;;;6289650;28;20128;-72
2022/08/04 11:07:51;;;;;;;1.70;1.60;;;37.00;27.50;;;;;;6265986;28;20041;-72
2022/08/04 11:10:59;;;;;;;3.55;1.67;;;37.70;26.50;;;;;;6268407;28;20045;-72
2022/08/04 11:14:10;;;;;;;14.02;2.10;;;38.20;25.80;;;;;;6267276;28;20107;-73
2022/08/04 11:17:28;;;;;;;21.35;2.75;;;38.50;25.20;;;;;;6288960;28;20469;-72
2022/08/04 11:20:37;;;;;;;6.18;2.45;;;38.90;24.90;;;;;;6268519;28;20049;-72
2022/08/04 11:23:45;;;;;;;8.82;2.47;;;39.20;24.60;;;;;;6252325;28;20032;-71
2022/08/04 11:27:01;;;;;;;7.88;2.20;;;39.50;24.20;;;;;;6288995;28;20040;-73
2022/08/04 11:30:07;;;;;;;6.03;1.95;;;39.60;24.20;;;;;;6292748;28;20056;-72
2022/08/04 11:33:51;;;;;;;11.60;1.83;;;39.70;23.90;;;;;;6284394;28;20041;-71
2022/08/04 11:37:13;;;;;;;5.07;1.70;;;40.20;23.60;;;;;;6153967;28;20042;-72
2022/08/04 11:40:23;;;;;;;2.30;1.92;;;40.20;23.20;;;;;;6190857;28;20125;-72
2022/08/04 11:43:43;;;;;;;3.15;1.98;;;40.20;23.20;;;;;;6192556;28;20072;-71
2022/08/04 11:46:51;;;;;;;7.20;2.30;;;40.20;23.10;;;;;;6191711;28;20154;-70
2022/08/04 11:50:05;;;;;;;4.60;2.25;;;40.30;22.90;;;;;;6167983;28;20034;-73
2022/08/04 11:53:08;;;;;;;4.25;2.10;;;40.50;22.70;;;;;;6168574;28;20385;-73
2022/08/04 11:56:13;;;;;;;2.88;2.05;;;40.50;22.70;;;;;;6190687;28;20069;-73
2022/08/04 11:59:14;;;;;;;2.88;2.22;;;40.50;22.70;;;;;;6190062;28;20038;-73
2022/08/04 12:02:29;;;;;;;7.15;2.00;;;40.60;22.60;;;;;;6183054;28;20030;-72
2022/08/04 12:05:32;;;;;;;2.72;1.85;;;40.50;23.00;;;;;;6191226;28;20420;-71
2022/08/04 12:09:16;;;;;;;4.22;2.20;;;39.90;22.80;;;;;;6190650;28;20391;-72
2022/08/04 12:12:42;;;;;;;1.70;1.58;;;39.40;23.30;;;;;;6183508;28;20077;-71
2022/08/04 12:16:18;;;;;;;7.32;2.08;;;39.50;23.20;;;;;;6215075;28;20130;-73
2022/08/04 12:19:41;;;;;;;8.40;2.00;;;40.00;23.00;;;;;;6184478;28;20073;-73
2022/08/04 12:22:47;;;;;;;4.15;2.00;;;40.60;22.50;;;;;;6215282;28;20045;-73
2022/08/04 12:25:51;;;;;;;5.55;1.90;;;40.90;22.20;;;;;;6214966;28;20459;-73
2022/08/04 12:28:59;;;;;;;8.82;1.83;;;41.10;21.90;;;;;;6207847;28;20511;-73
2022/08/04 12:32:11;;;;;;;5.97;2.05;;;41.20;21.80;;;;;;6180989;28;20062;-73
2022/08/04 12:35:52;;;;;;;2.45;1.42;;;41.30;21.60;;;;;;6221920;28;20132;-73
2022/08/04 12:39:10;;;;;;;9.77;2.15;;;41.60;21.20;;;;;;6220968;28;20068;-73
2022/08/04 12:42:21;;;;;;;;;;;41.70;21.00;;;;;;6231220;28;20364;-72
2022/08/04 12:45:22;;;;;;;7.88;1.85;;;42.00;20.70;;;;;;6312539;28;19999;-72
2022/08/04 12:48:25;;;;;;;3.47;1.77;;;42.00;20.70;;;;;;6296116;28;20473;-72
2022/08/04 12:51:27;;;;;;;1.98;1.70;;;42.30;20.30;;;;;;6297661;28;20365;-72
2022/08/04 12:54:30;;;;;;;4.47;1.80;;;42.70;19.80;;;;;;6295523;28;20631;-72
2022/08/04 12:57:34;;;;;;;3.05;1.70;;;43.40;19.40;;;;;;6297245;28;20079;-72
2022/08/04 13:00:35;;;;;;;2.17;1.48;;;43.60;19.20;;;;;;6295470;28;20373;-72
2022/08/04 13:03:49;;;;;;;3.75;1.63;;;44.00;18.80;;;;;;6282819;28;20037;-72
2022/08/04 13:07:00;;;;;;;3.53;1.85;;;43.40;19.10;;;;;;6270857;28;20339;-72
2022/08/04 13:10:10;;;;;;;4.20;1.80;;;42.50;19.60;;;;;;6272308;28;20037;-72
2022/08/04 13:13:20;;;;;;;2.97;1.60;;;41.70;20.10;;;;;;6272076;28;20037;-71
2022/08/04 13:16:31;;;;;;;5.13;2.85;;;40.90;20.70;;;;;;6286007;28;20044;-72
2022/08/04 13:19:33;;;;;;;4.88;1.80;;;40.30;21.00;;;;;;6295335;28;20090;-72
2022/08/04 13:22:34;;;;;;;6.85;1.70;;;40.00;21.30;;;;;;6295674;28;20075;-74
2022/08/04 13:25:43;;;;;;;2.33;1.45;;;39.80;21.30;;;;;;6295091;28;20041;-72
2022/08/04 13:28:47;;;;;;;1.95;1.70;;;39.70;21.40;;;;;;6295712;28;20037;-71
2022/08/04 13:31:49;;;;;;;1.92;1.55;;;39.70;21.40;;;;;;6294629;28;20028;-72
2022/08/04 13:34:55;;;;;;;4.07;1.92;;;39.60;21.30;;;;;;6283247;28;20041;-73
2022/08/04 13:37:57;;;;;;;3.10;1.90;;;39.50;21.30;;;;;;6271675;28;20469;-72
2022/08/04 13:41:01;;;;;;;2.28;1.80;;;39.40;21.50;;;;;;6292470;28;20108;-71
2022/08/04 13:44:08;;;;;;;4.10;1.80;;;39.30;21.60;;;;;;6312776;28;20028;-72
2022/08/04 13:47:14;;;;;;;4.13;1.70;;;39.30;21.60;;;;;;6294154;28;20086;-72
2022/08/04 13:50:15;;;;;;;1.90;1.70;;;39.20;21.70;;;;;;6297365;28;20044;-72
2022/08/04 13:53:17;;;;;;;4.03;1.80;;;39.10;21.80;;;;;;6297338;28;20055;-72
2022/08/04 13:56:20;;;;;;;2.17;1.73;;;39.10;21.80;;;;;;6296134;28;20045;-72
2022/08/04 13:59:25;;;;;;;2.08;1.90;;;39.00;21.80;;;;;;6296455;28;20041;-72
2022/08/04 14:02:47;;;;;;;2.40;2.17;;;39.00;22.00;;;;;;6297122;28;20127;-71
2022/08/04 14:06:13;;;;;;;2.83;2.00;;;38.90;22.20;;;;;;6294765;28;20051;-71
2022/08/04 14:09:17;;;;;;;2.00;1.80;;;38.90;22.40;;;;;;6293865;28;20090;-73
2022/08/04 14:12:18;;;;;;;2.55;2.13;;;38.90;22.60;;;;;;6295852;28;20096;-72
2022/08/04 14:15:44;;;;;;;3.42;1.90;;;38.90;22.70;;;;;;6295441;28;20413;-72
2022/08/04 14:18:46;;;;;;;3.53;1.77;;;38.90;22.80;;;;;;6295018;28;20080;-73
2022/08/04 14:21:47;;;;;;;11.48;2.53;;;38.90;22.90;;;;;;6295772;28;20051;-72
2022/08/04 14:24:57;;;;;;;3.53;2.15;;;38.90;23.50;;;;;;6290916;28;20453;-72
2022/08/04 14:28:00;;;;;;;5.25;2.35;;;38.90;24.10;;;;;;6302710;28;20429;-73
2022/08/04 14:31:16;;;;;;;3.97;2.20;;;38.80;24.20;;;;;;6293910;28;20033;-72
2022/08/04 14:34:28;;;;;;;5.15;2.40;;;38.70;24.40;;;;;;6271893;28;20112;-72
2022/08/04 14:37:29;;;;;;;4.63;2.42;;;38.70;24.70;;;;;;6270312;28;20437;-73
2022/08/04 14:40:33;;;;;;;2.80;2.22;;;38.60;24.80;;;;;;6269037;28;20105;-72
2022/08/04 14:43:44;;;;;;;2.65;2.13;;;38.60;25.10;;;;;;6269411;28;20090;-72
2022/08/04 14:46:54;;;;;;;2.25;1.80;;;38.80;24.90;;;;;;6284901;28;20041;-73
2022/08/04 14:49:55;;;;;;;3.38;2.00;;;39.30;24.40;;;;;;6295068;28;20028;-72
2022/08/04 14:53:06;;;;;;;6.50;2.40;;;39.60;24.10;;;;;;6292887;28;20036;-72
2022/08/04 14:56:07;;;;;;;3.17;2.60;;;39.60;24.30;;;;;;6293557;28;20040;-72
2022/08/04 14:59:10;;;;;;;2.75;2.33;;;39.40;24.30;;;;;;6293216;28;20113;-73
2022/08/04 15:02:12;;;;;;;6.57;2.05;;;39.20;24.50;;;;;;6291962;28;20028;-73
2022/08/04 15:05:14;;;;;;;6.40;2.45;;;39.10;24.70;;;;;;6292643;28;20052;-71
2022/08/04 15:08:16;;;;;;;2.92;2.03;;;39.00;24.80;;;;;;6294849;28;20115;-71
2022/08/04 15:11:18;;;;;;;2.42;1.88;;;38.90;25.30;;;;;;6294795;28;20116;-72
2022/08/04 15:14:20;;;;;;;3.60;2.25;;;38.70;25.80;;;;;;6294104;28;20032;-73
2022/08/04 15:17:21;;;;;;;2.80;1.83;;;38.60;26.00;;;;;;6294913;28;20036;-72
2022/08/04 15:20:22;;;;;;;4.32;1.77;;;38.40;26.10;;;;;;6295138;28;20392;-72
2022/08/04 15:23:23;;;;;;;3.95;2.40;;;38.40;26.30;;;;;;6295125;28;20040;-72
2022/08/04 15:26:44;;;;;;;3.25;2.10;;;38.30;26.30;;;;;;6295317;28;20037;-72
2022/08/04 15:29:49;;;;;;;3.33;1.88;;;38.10;26.30;;;;;;6277015;28;20112;-72
2022/08/04 15:32:58;;;;;;;2.80;2.13;;;38.10;26.20;;;;;;6294334;28;20037;-71
2022/08/04 15:36:26;;;;;;;6.20;2.15;;;38.00;26.20;;;;;;6293107;28;20476;-71
2022/08/04 15:39:52;;;;;;;4.03;2.20;;;37.90;26.30;;;;;;6294055;28;20039;-72
2022/08/04 15:43:25;;;;;;;4.65;2.40;;;37.90;26.20;;;;;;6289074;28;20048;-72
2022/08/04 15:46:50;;;;;;;2.88;1.73;;;38.10;25.90;;;;;;6281395;28;20043;-72
2022/08/04 15:50:11;;;;;;;3.47;2.20;;;38.10;25.80;;;;;;6293232;28;20064;-72
2022/08/04 15:53:11;;;;;;;5.68;2.25;;;38.10;25.80;;;;;;6291946;28;20040;-72
2022/08/04 15:56:24;;;;;;;3.47;2.28;;;38.10;25.80;;;;;;6291784;28;20079;-72
2022/08/04 15:59:54;;;;;;;2.20;2.00;;;38.10;25.80;;;;;;6293565;28;20048;-72
2022/08/04 16:02:55;;;;;;;2.40;1.83;;;38.40;25.40;;;;;;6283735;28;20108;-72
2022/08/04 16:05:56;;;;;;;4.78;1.95;;;38.70;25.20;;;;;;6290223;28;20032;-72
2022/08/04 16:08:58;;;;;;;3.70;2.20;;;39.30;24.90;;;;;;6293555;28;20032;-72
2022/08/04 16:11:59;;;;;;;2.50;1.90;;;40.50;24.00;;;;;;6292579;28;20036;-72
2022/08/04 16:15:35;;;;;;;4.07;2.17;;;41.00;23.50;;;;;;6293289;28;20119;-72
2022/08/04 16:18:38;;;;;;;5.10;1.92;;;40.90;23.50;;;;;;6291873;28;20373;-72
2022/08/04 16:21:45;;;;;;;4.88;3.08;;;40.40;23.80;;;;;;6292378;28;20404;-72
2022/08/04 16:24:51;;;;;;;3.58;2.92;;;39.90;24.30;;;;;;6292509;28;20101;-71
2022/08/04 16:27:52;;;;;;;5.22;3.22;;;39.20;24.70;;;;;;6293712;28;20105;-71
2022/08/04 16:31:00;;;;;;;6.40;3.78;;;38.70;25.30;;;;;;6293635;28;20048;-71
2022/08/04 16:34:00;;;;;;;2.80;2.33;;;38.30;25.70;;;;;;6293039;28;20113;-71